This is the latest recevied weather packets stored in our database for station/object N8MFN. If no packets are shown the sender has not sent any weather packets the latest 10 day(s).
| Time | Temp. | Humidity | Pressure | Rain* | Wind** | Luminosity | Snow |
|---|---|---|---|---|---|---|---|
| 1777768817 | 9.44° C | 58% | - | 0 mm | - | - | - |
| 1777767057 | 11.67° C | 57% | - | 0 mm | - | - | - |
| 1777761017 | 15° C | 54% | - | 0 mm | - | - | - |
| 1777759237 | 15° C | 55% | - | 0 mm | - | - | - |
| 1777755617 | 17.78° C | 54% | - | 0 mm | - | - | - |
| 1777754417 | 18.33° C | 56% | - | 0 mm | - | - | - |
| 1777753818 | 16.67° C | 55% | - | 0 mm | - | - | - |
| 1777750217 | 20.56° C | 54% | - | 0 mm | - | - | - |
| 1777749017 | 19.44° C | 53% | - | 0 mm | - | - | - |
| 1777746017 | 20.56° C | 56% | - | 0 mm | - | - | - |
| 1777743017 | 16.11° C | 59% | - | 0 mm | - | - | - |
| 1777739417 | 16.11° C | 61% | - | 0 mm | - | - | - |
| 1777725037 | 6.11° C | 75% | - | 0 mm | - | - | - |
| 1777717817 | 5.56° C | 74% | - | 0 mm | - | - | - |
| 1777716017 | 5° C | 75% | - | 0 mm | - | - | - |
| 1777711837 | 3.33° C | 74% | - | 0 mm | - | - | - |
| 1777701617 | 6.11° C | 72% | - | 0 mm | - | - | - |
| 1777701017 | 5.56° C | 73% | - | 0 mm | - | - | - |
| 1777698017 | 5.56° C | 72% | - | 0 mm | - | - | - |
| 1777697417 | 5° C | 72% | - | 0 mm | - | - | - |
| 1777692037 | 6.67° C | 70% | - | 0 mm | - | - | - |
| 1777691416 | 6.67° C | 70% | - | 0 mm | - | - | - |
| 1777690237 | 7.78° C | 70% | - | 0 mm | - | - | - |
| 1777680017 | 12.78° C | 64% | - | 0 mm | - | - | - |
| 1777679417 | 13.89° C | 63% | - | 0 mm | - | - | - |
* Rain latest hour (hover to see other rain measurements)
** Current wind speed in m/s (hover to see current wind gust speed)